Time;durP1;ratioP1;P1;durP2;ratioP2;P2;SDS_P1;SDS_P2;PMS_P1;PMS_P2;Temp;Humidity;BMP_temperature;BMP_pressure;BME280_temperature;BME280_humidity;BME280_pressure;Samples;Min_cycle;Max_cycle;Signal;HPM_P1;HPM_P2
2021/09/23 00:02:35;;;;;;;9.15;7.70;;;10.80;99.90;;;;;;5015256;28;20229;-76
2021/09/23 00:05:02;;;;;;;9.40;6.85;;;10.70;99.90;;;;;;5022004;28;20212;-76
2021/09/23 00:07:29;;;;;;;7.15;6.05;;;10.70;99.90;;;;;;5013887;28;20245;-77
2021/09/23 00:09:56;;;;;;;11.02;6.95;;;10.60;99.90;;;;;;5013205;28;20237;-77
2021/09/23 00:12:24;;;;;;;7.70;6.90;;;10.60;99.90;;;;;;5013544;28;20613;-76
2021/09/23 00:14:51;;;;;;;8.85;6.00;;;10.60;99.90;;;;;;5013384;28;20210;-76
2021/09/23 00:17:18;;;;;;;7.47;6.75;;;10.50;99.90;;;;;;5017185;28;20291;-76
2021/09/23 00:19:45;;;;;;;8.27;7.00;;;10.50;99.90;;;;;;5016367;28;20228;-77
2021/09/23 00:22:12;;;;;;;7.78;6.95;;;10.40;99.90;;;;;;5016080;28;20737;-77
2021/09/23 00:24:39;;;;;;;9.63;8.00;;;10.30;99.90;;;;;;5016179;28;20237;-77
2021/09/23 00:27:06;;;;;;;9.27;7.40;;;10.30;99.90;;;;;;5015950;28;20300;-76
2021/09/23 00:29:34;;;;;;;10.73;6.88;;;10.30;99.90;;;;;;5016740;28;20305;-77
2021/09/23 00:32:01;;;;;;;7.28;6.57;;;10.20;99.90;;;;;;5016520;28;20266;-77
2021/09/23 00:34:28;;;;;;;7.65;6.90;;;10.20;99.90;;;;;;5016062;28;20633;-76
2021/09/23 00:36:55;;;;;;;9.50;7.47;;;10.20;99.90;;;;;;5016399;28;20267;-77
2021/09/23 00:39:24;;;;;;;7.32;6.60;;;10.20;99.90;;;;;;5015992;28;20317;-77
2021/09/23 00:41:51;;;;;;;7.30;6.50;;;10.20;99.90;;;;;;5016801;28;20230;-76
2021/09/23 00:44:21;;;;;;;12.02;6.65;;;10.20;99.90;;;;;;5018300;28;20213;-76
2021/09/23 00:46:51;;;;;;;9.63;7.13;;;10.10;99.90;;;;;;5020954;28;20667;-76
2021/09/23 00:49:18;;;;;;;8.75;7.85;;;10.00;99.90;;;;;;5019366;28;20245;-76
2021/09/23 00:51:46;;;;;;;9.80;7.55;;;10.00;99.90;;;;;;5015795;28;20305;-76
2021/09/23 00:54:13;;;;;;;12.70;7.70;;;10.00;99.90;;;;;;5015921;28;20209;-75
2021/09/23 00:56:40;;;;;;;7.97;7.18;;;10.00;99.90;;;;;;5015545;28;20208;-76
2021/09/23 00:59:06;;;;;;;9.57;7.25;;;9.90;99.90;;;;;;5015684;28;20674;-76
2021/09/23 01:01:33;;;;;;;8.18;7.38;;;9.90;99.90;;;;;;5015550;28;20239;-76
2021/09/23 01:04:02;;;;;;;9.80;7.80;;;9.80;99.90;;;;;;5015900;28;20496;-76
2021/09/23 01:06:29;;;;;;;9.60;7.85;;;9.80;99.90;;;;;;5015656;28;20771;-76
2021/09/23 01:08:57;;;;;;;9.40;7.50;;;9.70;99.90;;;;;;5015939;28;20212;-77
2021/09/23 01:11:27;;;;;;;10.68;7.18;;;9.60;99.90;;;;;;5015663;28;20735;-77
2021/09/23 01:13:54;;;;;;;13.13;7.72;;;9.60;99.90;;;;;;5016058;28;20278;-76
2021/09/23 01:16:22;;;;;;;10.45;8.00;;;9.60;99.90;;;;;;5016900;28;20300;-78
2021/09/23 01:18:49;;;;;;;11.43;7.43;;;9.60;99.90;;;;;;5016277;28;20307;-77
2021/09/23 01:21:17;;;;;;;12.10;7.70;;;9.50;99.90;;;;;;5016169;28;20295;-77
2021/09/23 01:23:45;;;;;;;11.25;7.43;;;9.50;99.90;;;;;;5032887;28;20212;-77
2021/09/23 01:26:17;;;;;;;10.45;8.23;;;9.40;99.90;;;;;;5025124;28;20687;-76
2021/09/23 01:28:44;;;;;;;7.97;7.18;;;9.40;99.90;;;;;;5025607;28;20243;-78
2021/09/23 01:31:12;;;;;;;8.48;7.15;;;9.40;99.90;;;;;;5037668;28;20400;-77
2021/09/23 01:33:39;;;;;;;13.52;8.25;;;9.40;99.90;;;;;;5037235;28;20203;-78
2021/09/23 01:36:05;;;;;;;10.85;8.25;;;9.30;99.90;;;;;;5020127;28;20272;-77
2021/09/23 01:38:34;;;;;;;11.48;7.95;;;9.30;99.90;;;;;;5015868;28;20205;-77
2021/09/23 01:41:01;;;;;;;10.02;7.75;;;9.30;99.90;;;;;;5015206;28;20234;-77
2021/09/23 01:43:27;;;;;;;11.00;9.25;;;9.30;99.90;;;;;;5014804;28;20587;-75
2021/09/23 01:45:54;;;;;;;10.27;7.78;;;9.20;99.90;;;;;;5014610;28;20223;-76
2021/09/23 01:48:21;;;;;;;10.38;8.15;;;9.20;99.90;;;;;;5015864;28;20302;-75
2021/09/23 01:50:48;;;;;;;11.23;8.52;;;9.10;99.90;;;;;;5016893;28;20210;-76
2021/09/23 01:53:15;;;;;;;10.85;8.68;;;9.10;99.90;;;;;;5016322;28;20259;-77
2021/09/23 01:55:44;;;;;;;9.25;8.25;;;9.10;99.90;;;;;;5016203;28;20242;-78
2021/09/23 01:58:10;;;;;;;9.57;8.55;;;9.20;99.90;;;;;;5015496;28;20286;-78
2021/09/23 02:00:37;;;;;;;10.27;8.00;;;9.10;99.90;;;;;;5016673;28;20227;-77
2021/09/23 02:03:04;;;;;;;10.40;7.95;;;9.10;99.90;;;;;;5025166;28;20267;-78
2021/09/23 02:05:31;;;;;;;8.77;7.90;;;9.10;99.90;;;;;;5021016;28;20223;-77
2021/09/23 02:07:58;;;;;;;9.73;7.60;;;9.10;99.90;;;;;;5015604;28;20719;-77
2021/09/23 02:10:25;;;;;;;11.32;8.43;;;9.20;99.90;;;;;;5016807;28;20205;-77
2021/09/23 02:12:55;;;;;;;12.75;8.93;;;9.20;99.90;;;;;;5015894;28;20342;-77
2021/09/23 02:15:22;;;;;;;11.88;9.07;;;9.20;99.90;;;;;;5028893;28;20213;-78
2021/09/23 02:17:49;;;;;;;15.23;8.55;;;9.30;99.90;;;;;;5036711;28;20220;-80
2021/09/23 02:20:16;;;;;;;11.95;8.77;;;9.40;99.90;;;;;;5034706;28;20232;-78
2021/09/23 02:22:45;;;;;;;10.85;9.75;;;9.50;99.90;;;;;;5022892;28;20228;-77
2021/09/23 02:25:12;;;;;;;11.50;9.30;;;9.60;99.90;;;;;;5018991;28;20208;-77
2021/09/23 02:27:39;;;;;;;11.77;8.82;;;9.60;99.90;;;;;;5017542;28;20325;-77
2021/09/23 02:30:09;;;;;;;14.07;9.30;;;9.60;99.90;;;;;;5016967;28;20697;-77
2021/09/23 02:32:36;;;;;;;14.10;8.85;;;9.70;99.90;;;;;;5018489;28;20267;-76
2021/09/23 02:35:03;;;;;;;11.35;9.52;;;9.80;99.90;;;;;;5016416;28;20233;-78
2021/09/23 02:37:30;;;;;;;13.40;8.60;;;9.90;99.90;;;;;;5014140;28;20215;-77
2021/09/23 02:39:57;;;;;;;10.95;8.70;;;9.80;99.90;;;;;;5013250;28;20232;-77
2021/09/23 02:42:24;;;;;;;13.45;8.80;;;9.70;99.90;;;;;;5013972;28;20240;-77
2021/09/23 02:44:51;;;;;;;8.43;7.63;;;9.70;99.90;;;;;;5014435;28;20295;-77
2021/09/23 02:47:22;;;;;;;10.23;8.30;;;9.70;99.90;;;;;;5018812;28;20273;-77
2021/09/23 02:49:49;;;;;;;10.32;7.50;;;9.80;99.90;;;;;;5018564;28;20206;-78
2021/09/23 02:52:16;;;;;;;9.45;8.30;;;9.70;99.90;;;;;;5018766;28;20323;-78
2021/09/23 02:54:43;;;;;;;14.63;9.18;;;9.70;99.90;;;;;;5016158;28;20303;-77
2021/09/23 02:57:10;;;;;;;8.88;7.95;;;9.80;99.90;;;;;;5015078;28;20246;-77
2021/09/23 02:59:37;;;;;;;10.40;8.90;;;9.80;99.90;;;;;;5014337;28;20232;-77
2021/09/23 03:02:04;;;;;;;11.65;8.65;;;9.80;99.90;;;;;;5014932;28;20319;-77
2021/09/23 03:04:32;;;;;;;9.95;8.90;;;9.80;99.90;;;;;;5023145;28;20269;-77
2021/09/23 03:06:59;;;;;;;10.80;8.50;;;9.70;99.90;;;;;;5020895;28;20212;-77
2021/09/23 03:09:26;;;;;;;9.80;8.30;;;9.70;99.90;;;;;;5019392;28;20236;-78
2021/09/23 03:11:53;;;;;;;10.13;8.95;;;9.60;99.90;;;;;;5020004;28;20331;-78
2021/09/23 03:14:20;;;;;;;12.68;8.60;;;9.60;99.90;;;;;;5024371;28;20231;-78
2021/09/23 03:16:47;;;;;;;9.88;7.78;;;9.60;99.90;;;;;;5023159;28;20209;-77
2021/09/23 03:19:14;;;;;;;9.90;8.65;;;9.60;99.90;;;;;;5017597;28;20247;-78
2021/09/23 03:21:42;;;;;;;10.93;9.20;;;9.50;99.90;;;;;;5013050;28;20704;-78
2021/09/23 03:24:10;;;;;;;11.55;8.00;;;9.60;99.90;;;;;;5012857;28;20723;-76
2021/09/23 03:26:39;;;;;;;11.18;9.00;;;9.60;99.90;;;;;;5013157;28;20211;-76
2021/09/23 03:29:06;;;;;;;13.45;9.27;;;9.50;99.90;;;;;;5012344;28;20692;-77
2021/09/23 03:31:33;;;;;;;13.60;9.30;;;9.50;99.90;;;;;;5013000;28;20227;-78
2021/09/23 03:34:00;;;;;;;11.05;9.10;;;9.60;99.90;;;;;;5013296;28;20739;-78
2021/09/23 03:36:27;;;;;;;10.50;9.02;;;9.60;99.90;;;;;;5013174;28;20226;-78
2021/09/23 03:38:55;;;;;;;13.15;9.10;;;9.50;99.90;;;;;;5012207;28;20244;-78
2021/09/23 03:41:23;;;;;;;10.65;8.55;;;9.50;99.90;;;;;;5014074;28;20232;-77
2021/09/23 03:43:50;;;;;;;12.85;8.77;;;9.50;99.90;;;;;;5014204;28;20220;-78
2021/09/23 03:46:17;;;;;;;11.27;9.65;;;9.40;99.90;;;;;;5012161;28;20295;-77
2021/09/23 03:48:45;;;;;;;13.30;9.02;;;9.40;99.90;;;;;;4991943;28;20298;-78
2021/09/23 03:51:13;;;;;;;13.95;9.10;;;9.30;99.90;;;;;;4997548;28;20208;-77
2021/09/23 03:53:40;;;;;;;11.25;8.85;;;9.30;99.90;;;;;;5015597;28;20225;-79
2021/09/23 03:56:12;;;;;;;11.82;10.07;;;9.20;99.90;;;;;;5017027;28;20302;-78
2021/09/23 03:58:39;;;;;;;14.25;9.68;;;9.20;99.90;;;;;;5017208;28;20212;-78
2021/09/23 04:01:06;;;;;;;11.25;9.43;;;9.20;99.90;;;;;;5017164;28;20234;-79
2021/09/23 04:03:33;;;;;;;10.57;9.45;;;9.10;99.90;;;;;;5024602;28;20560;-78
2021/09/23 04:06:01;;;;;;;14.10;9.60;;;9.10;99.90;;;;;;5017188;28;20224;-77
2021/09/23 04:08:29;;;;;;;9.98;8.95;;;9.10;99.90;;;;;;5017348;28;20246;-79
2021/09/23 04:10:56;;;;;;;13.15;9.70;;;9.10;99.90;;;;;;5016793;28;20627;-78
2021/09/23 04:13:24;;;;;;;10.27;8.63;;;9.10;99.90;;;;;;5016837;28;20771;-77
2021/09/23 04:15:51;;;;;;;15.23;9.60;;;9.00;99.90;;;;;;5017070;28;20207;-77
2021/09/23 04:18:18;;;;;;;9.73;8.60;;;9.00;99.90;;;;;;5017501;28;20227;-77
2021/09/23 04:20:45;;;;;;;10.13;7.90;;;9.00;99.90;;;;;;5017915;28;20451;-77
2021/09/23 04:23:12;;;;;;;11.00;8.75;;;9.00;99.90;;;;;;5017315;28;20322;-77
2021/09/23 04:25:40;;;;;;;11.25;7.43;;;8.90;99.90;;;;;;5018148;28;20208;-76
2021/09/23 04:28:07;;;;;;;8.63;7.70;;;9.00;99.90;;;;;;5017390;28;20656;-74
2021/09/23 04:30:36;;;;;;;11.15;8.00;;;9.00;99.90;;;;;;5016472;28;20290;-78
2021/09/23 04:33:03;;;;;;;10.18;7.32;;;9.00;99.90;;;;;;5014519;28;20670;-77
2021/09/23 04:35:30;;;;;;;9.13;7.82;;;9.00;99.90;;;;;;5015191;28;20247;-77
2021/09/23 04:37:57;;;;;;;8.65;6.93;;;9.00;99.90;;;;;;5014997;28;20292;-78
2021/09/23 04:40:24;;;;;;;7.90;6.72;;;9.00;99.90;;;;;;5014981;28;20233;-76
2021/09/23 04:42:51;;;;;;;7.40;6.47;;;9.00;99.90;;;;;;5015037;28;20663;-76
2021/09/23 04:45:18;;;;;;;7.90;6.57;;;9.00;99.90;;;;;;5015880;28;20296;-77
2021/09/23 04:47:46;;;;;;;8.18;6.90;;;9.00;99.90;;;;;;5016817;28;20300;-77
2021/09/23 04:50:13;;;;;;;8.93;6.63;;;8.90;99.90;;;;;;5016248;28;20292;-76
2021/09/23 04:52:40;;;;;;;6.68;6.05;;;8.90;99.90;;;;;;5016010;28;20315;-77
2021/09/23 04:55:08;;;;;;;7.05;6.20;;;8.90;99.90;;;;;;5016396;28;20214;-76
2021/09/23 04:57:35;;;;;;;7.93;6.38;;;8.90;99.90;;;;;;5016644;28;20678;-77
2021/09/23 05:00:02;;;;;;;7.60;6.13;;;8.90;99.90;;;;;;5017044;28;20315;-77
2021/09/23 05:02:32;;;;;;;8.02;5.57;;;8.90;99.90;;;;;;5018379;28;20270;-77
2021/09/23 05:05:00;;;;;;;6.85;5.90;;;8.90;99.90;;;;;;5022453;28;20213;-79
2021/09/23 05:07:28;;;;;;;8.55;7.00;;;8.90;99.90;;;;;;5030669;28;20239;-78
2021/09/23 05:09:55;;;;;;;7.88;6.40;;;8.90;99.90;;;;;;5036064;28;20676;-79
2021/09/23 05:12:22;;;;;;;7.15;6.15;;;8.90;99.90;;;;;;5030740;28;20235;-77
2021/09/23 05:14:49;;;;;;;7.78;6.90;;;8.90;99.90;;;;;;5019698;28;20258;-76
2021/09/23 05:17:16;;;;;;;7.30;6.50;;;8.90;99.90;;;;;;5016850;28;20680;-76
2021/09/23 05:19:43;;;;;;;7.63;5.80;;;8.90;99.90;;;;;;5016070;28;20573;-77
2021/09/23 05:22:11;;;;;;;6.82;5.82;;;8.80;99.90;;;;;;5018032;28;20324;-75
2021/09/23 05:24:38;;;;;;;7.47;6.50;;;8.90;99.90;;;;;;5018506;28;20243;-76
2021/09/23 05:27:08;;;;;;;9.15;6.90;;;8.90;99.90;;;;;;5020291;28;20211;-77
2021/09/23 05:29:35;;;;;;;8.85;7.07;;;9.00;99.90;;;;;;5018406;28;20204;-77
2021/09/23 05:32:02;;;;;;;11.57;6.53;;;9.10;99.90;;;;;;5017117;28;20231;-77
2021/09/23 05:34:29;;;;;;;7.90;6.35;;;9.20;99.90;;;;;;5016134;28;20325;-77
2021/09/23 05:36:56;;;;;;;7.35;6.55;;;9.30;99.90;;;;;;5015544;28;20652;-77
2021/09/23 05:39:24;;;;;;;10.05;7.57;;;9.40;99.90;;;;;;5015362;28;20217;-79
2021/09/23 05:41:51;;;;;;;8.90;6.43;;;9.40;99.90;;;;;;5015387;28;20782;-78
2021/09/23 05:44:23;;;;;;;9.82;6.13;;;9.40;99.90;;;;;;5015509;28;20639;-77
2021/09/23 05:46:50;;;;;;;8.95;5.47;;;9.40;99.90;;;;;;5015506;28;20219;-77
2021/09/23 05:49:17;;;;;;;14.70;6.20;;;9.40;99.90;;;;;;5015075;28;20219;-77
2021/09/23 05:51:44;;;;;;;6.50;5.10;;;9.30;99.90;;;;;;5015509;28;20315;-78
2021/09/23 05:54:11;;;;;;;6.57;5.40;;;9.30;99.90;;;;;;5016402;28;20215;-76
2021/09/23 05:56:40;;;;;;;7.13;5.05;;;9.30;99.90;;;;;;5021699;28;20210;-76
2021/09/23 05:59:07;;;;;;;6.30;5.40;;;9.30;99.90;;;;;;5018395;28;20279;-78
2021/09/23 06:01:34;;;;;;;8.57;5.82;;;9.30;99.90;;;;;;5015602;28;20784;-77
2021/09/23 06:04:01;;;;;;;8.65;6.05;;;9.30;99.90;;;;;;5015788;28;20241;-77
2021/09/23 06:06:28;;;;;;;7.75;6.55;;;9.40;99.90;;;;;;5015708;28;20237;-78
2021/09/23 06:08:55;;;;;;;7.72;6.93;;;9.40;99.90;;;;;;5015562;28;20604;-79
2021/09/23 06:11:22;;;;;;;8.35;6.57;;;9.50;99.90;;;;;;5015873;28;20709;-78
2021/09/23 06:13:50;;;;;;;11.27;6.88;;;9.60;99.90;;;;;;5024602;28;20821;-79
2021/09/23 06:16:17;;;;;;;9.13;7.60;;;9.70;99.90;;;;;;5025427;28;20585;-79
2021/09/23 06:18:46;;;;;;;9.18;7.68;;;9.70;99.90;;;;;;5031560;28;20220;-78
2021/09/23 06:21:13;;;;;;;15.30;8.05;;;9.80;99.90;;;;;;5031753;28;20213;-79
2021/09/23 06:23:40;;;;;;;9.82;8.63;;;9.90;99.90;;;;;;5033230;28;20278;-79
2021/09/23 06:26:07;;;;;;;10.98;8.30;;;9.90;99.90;;;;;;5033521;28;20213;-79
2021/09/23 06:28:34;;;;;;;12.30;9.20;;;9.90;99.90;;;;;;5033567;28;20209;-80
2021/09/23 06:31:03;;;;;;;10.00;8.07;;;10.00;99.90;;;;;;5031299;28;20205;-79
2021/09/23 06:33:30;;;;;;;10.43;8.05;;;10.00;99.90;;;;;;5020287;28;20209;-80
2021/09/23 06:36:00;;;;;;;13.15;8.25;;;10.10;99.90;;;;;;5024161;28;20221;-79
2021/09/23 06:38:27;;;;;;;15.52;8.65;;;10.20;99.90;;;;;;5024662;28;20280;-80
2021/09/23 06:40:56;;;;;;;12.35;8.70;;;10.30;99.90;;;;;;5024185;28;20252;-81
2021/09/23 06:43:23;;;;;;;14.35;9.13;;;10.30;99.50;;;;;;5024900;28;20240;-81
2021/09/23 06:45:51;;;;;;;14.05;11.02;;;10.40;99.10;;;;;;5025659;28;20247;-81
2021/09/23 06:48:19;;;;;;;18.67;12.38;;;10.40;98.40;;;;;;5022149;28;20711;-80
2021/09/23 06:50:49;;;;;;;16.70;11.13;;;10.50;98.60;;;;;;5021348;28;20209;-80
2021/09/23 06:53:16;;;;;;;14.55;10.90;;;10.50;98.50;;;;;;5022126;28;20260;-80
2021/09/23 06:55:43;;;;;;;16.08;11.65;;;10.50;98.20;;;;;;5026391;28;20221;-79
2021/09/23 06:58:10;;;;;;;18.23;10.77;;;10.60;98.10;;;;;;5022752;28;20211;-78
2021/09/23 07:00:37;;;;;;;19.15;11.05;;;10.70;97.50;;;;;;5021212;28;20230;-80
2021/09/23 07:03:04;;;;;;;15.23;10.85;;;10.80;97.00;;;;;;5030313;28;20217;-79
2021/09/23 07:05:33;;;;;;;15.13;11.00;;;10.90;97.00;;;;;;5037151;28;20194;-79
2021/09/23 07:08:03;;;;;;;16.17;9.35;;;11.00;96.60;;;;;;5035494;28;20206;-78
2021/09/23 07:10:30;;;;;;;10.07;9.07;;;11.10;95.40;;;;;;5037073;28;20237;-78
2021/09/23 07:12:57;;;;;;;11.00;9.52;;;11.10;94.70;;;;;;5037746;28;20242;-78
2021/09/23 07:15:24;;;;;;;11.45;8.70;;;11.20;94.30;;;;;;5036980;28;20725;-80
2021/09/23 07:17:51;;;;;;;10.00;8.88;;;11.30;93.60;;;;;;5032642;28;20226;-79
2021/09/23 07:20:18;;;;;;;11.15;9.23;;;11.40;92.90;;;;;;5035242;28;20222;-80
2021/09/23 07:22:48;;;;;;;10.48;8.80;;;11.30;92.20;;;;;;5033937;28;20245;-79
2021/09/23 07:25:15;;;;;;;10.65;9.48;;;11.40;92.20;;;;;;5030474;28;20214;-80
2021/09/23 07:27:48;;;;;;;11.07;9.63;;;11.50;92.20;;;;;;5024736;28;20689;-78
2021/09/23 07:30:15;;;;;;;11.27;9.52;;;11.50;91.90;;;;;;5030293;28;20278;-81
2021/09/23 07:32:42;;;;;;;11.25;9.52;;;11.60;91.90;;;;;;5020100;28;20233;-81
2021/09/23 07:35:09;;;;;;;11.35;9.45;;;11.60;92.20;;;;;;5019709;28;20241;-80
2021/09/23 07:37:36;;;;;;;12.27;10.25;;;11.70;91.80;;;;;;5020557;28;20238;-81
2021/09/23 07:40:07;;;;;;;14.93;9.95;;;11.80;91.60;;;;;;5020256;28;20214;-79
2021/09/23 07:42:35;;;;;;;11.05;9.40;;;11.90;91.00;;;;;;5025826;28;20261;-80
2021/09/23 07:45:02;;;;;;;11.95;10.65;;;12.10;90.80;;;;;;5022660;28;20653;-79
2021/09/23 07:47:29;;;;;;;13.18;10.23;;;12.10;90.40;;;;;;5026114;28;20284;-80
2021/09/23 07:49:56;;;;;;;15.18;11.23;;;12.30;90.10;;;;;;5019332;28;20310;-80
2021/09/23 07:52:23;;;;;;;11.90;10.43;;;12.30;88.80;;;;;;5019080;28;20227;-80
2021/09/23 07:54:52;;;;;;;14.38;10.10;;;12.40;88.00;;;;;;5019949;28;20305;-79
2021/09/23 07:57:21;;;;;;;12.07;9.75;;;12.60;87.50;;;;;;5020087;28;20627;-80
2021/09/23 07:59:48;;;;;;;11.82;10.35;;;12.70;87.10;;;;;;5027958;28;20226;-80
2021/09/23 08:02:15;;;;;;;10.98;9.45;;;12.90;85.30;;;;;;5030183;28;20308;-79
2021/09/23 08:04:42;;;;;;;10.80;9.30;;;13.00;83.50;;;;;;5023297;28;20231;-80
2021/09/23 08:07:12;;;;;;;12.57;10.43;;;13.20;82.60;;;;;;5019398;28;20542;-79
2021/09/23 08:09:41;;;;;;;13.57;10.30;;;13.20;80.90;;;;;;5021608;28;20223;-79
2021/09/23 08:12:11;;;;;;;13.43;10.52;;;13.40;80.80;;;;;;5029917;28;20718;-79
2021/09/23 08:14:39;;;;;;;10.98;9.27;;;13.50;79.50;;;;;;5024032;28;20584;-79
2021/09/23 08:17:06;;;;;;;13.68;10.45;;;13.50;79.50;;;;;;5028821;28;20226;-79
2021/09/23 08:19:35;;;;;;;11.63;10.02;;;13.50;78.40;;;;;;5032528;28;20188;-80
2021/09/23 08:22:03;;;;;;;14.98;9.23;;;13.60;78.30;;;;;;5030915;28;20259;-79
2021/09/23 08:24:30;;;;;;;11.75;9.80;;;13.70;77.20;;;;;;5028538;28;20208;-79
2021/09/23 08:26:57;;;;;;;11.43;9.10;;;13.80;76.40;;;;;;5023959;28;20212;-80
2021/09/23 08:29:24;;;;;;;13.85;10.18;;;13.90;75.20;;;;;;5027348;28;20212;-81
2021/09/23 08:31:52;;;;;;;11.52;9.82;;;14.10;75.20;;;;;;5024513;28;20224;-79
2021/09/23 08:34:19;;;;;;;16.95;10.80;;;14.20;75.20;;;;;;5020414;28;20238;-80
2021/09/23 08:36:46;;;;;;;11.77;9.70;;;14.30;73.80;;;;;;5021651;28;20612;-80
2021/09/23 08:39:14;;;;;;;13.32;10.13;;;14.30;73.10;;;;;;5022191;28;20208;-81
2021/09/23 08:41:41;;;;;;;10.52;8.77;;;14.40;73.20;;;;;;5022945;28;20227;-80
2021/09/23 08:44:08;;;;;;;13.52;7.90;;;14.50;73.50;;;;;;5022537;28;20279;-80
2021/09/23 08:46:36;;;;;;;13.37;8.60;;;14.60;71.80;;;;;;5022835;28;20295;-79
2021/09/23 08:49:07;;;;;;;8.73;7.75;;;14.70;71.80;;;;;;5022111;28;20462;-80
2021/09/23 08:51:36;;;;;;;12.73;8.50;;;14.80;71.90;;;;;;5026770;28;20228;-79
2021/09/23 08:54:03;;;;;;;12.45;8.45;;;15.00;70.20;;;;;;5028098;28;20275;-81
2021/09/23 08:56:31;;;;;;;11.15;7.50;;;15.10;67.80;;;;;;5026178;28;20204;-80
2021/09/23 08:58:58;;;;;;;10.15;7.65;;;15.10;66.50;;;;;;5023033;28;20213;-79
2021/09/23 09:01:29;;;;;;;7.87;6.97;;;15.20;66.30;;;;;;5022398;28;20228;-79
2021/09/23 09:04:02;;;;;;;8.90;7.67;;;15.30;66.10;;;;;;5022346;28;20471;-81
2021/09/23 09:06:30;;;;;;;9.03;6.47;;;15.50;65.30;;;;;;5023563;28;20888;-79
2021/09/23 09:08:57;;;;;;;7.73;6.93;;;15.70;65.00;;;;;;5020697;28;20542;-78
2021/09/23 09:11:25;;;;;;;9.33;7.70;;;15.70;63.90;;;;;;5029720;28;20468;-79
2021/09/23 09:13:53;;;;;;;11.60;7.90;;;15.70;63.90;;;;;;5021838;28;20443;-79
2021/09/23 09:16:22;;;;;;;7.83;7.13;;;15.80;63.80;;;;;;5023758;28;20459;-79
2021/09/23 09:18:51;;;;;;;9.67;7.20;;;15.90;63.10;;;;;;5025428;28;20436;-79
2021/09/23 09:21:20;;;;;;;9.10;7.17;;;15.80;62.10;;;;;;5023615;28;21027;-79
2021/09/23 09:23:51;;;;;;;8.37;7.40;;;15.90;62.20;;;;;;5022189;28;20430;-80
2021/09/23 09:26:23;;;;;;;7.23;6.53;;;15.90;62.50;;;;;;5022951;28;21039;-79
2021/09/23 09:28:52;;;;;;;9.67;7.10;;;16.10;62.80;;;;;;5025283;28;20468;-80
2021/09/23 09:31:19;;;;;;;11.63;6.60;;;16.20;61.40;;;;;;5034894;28;20501;-79
2021/09/23 09:33:48;;;;;;;8.10;6.90;;;16.30;60.40;;;;;;5039790;28;20468;-77
2021/09/23 09:36:27;;;;;;;7.10;6.33;;;16.50;60.00;;;;;;5038796;28;20490;-79
2021/09/23 09:38:57;;;;;;;11.33;6.43;;;16.60;59.00;;;;;;5018192;28;20468;-76
2021/09/23 09:41:26;;;;;;;10.60;6.70;;;16.70;58.60;;;;;;5023224;28;20548;-80
2021/09/23 09:43:55;;;;;;;7.73;6.70;;;16.80;57.90;;;;;;5031450;28;20493;-76
2021/09/23 09:46:29;;;;;;;9.03;5.43;;;16.90;57.70;;;;;;5034020;28;20452;-78
2021/09/23 09:48:57;;;;;;;7.20;5.87;;;16.90;55.70;;;;;;5031258;28;20438;-78
2021/09/23 09:51:37;;;;;;;6.40;5.03;;;17.00;55.80;;;;;;5030598;28;20559;-77
2021/09/23 09:54:06;;;;;;;6.93;5.37;;;17.10;55.90;;;;;;5019190;28;20468;-76
2021/09/23 09:56:33;;;;;;;7.30;5.20;;;17.00;55.80;;;;;;5017897;28;20462;-77
2021/09/23 09:59:12;;;;;;;6.23;4.90;;;17.10;55.90;;;;;;5017882;28;20552;-78
2021/09/23 10:01:41;;;;;;;5.37;4.87;;;17.20;54.60;;;;;;5017753;28;20576;-77
2021/09/23 10:04:09;;;;;;;5.20;4.70;;;17.40;53.20;;;;;;5020849;28;20457;-78
2021/09/23 10:06:39;;;;;;;4.97;4.40;;;17.60;51.70;;;;;;5029575;28;20466;-77
2021/09/23 10:09:07;;;;;;;5.90;4.77;;;17.50;50.90;;;;;;5029699;28;20455;-78
2021/09/23 10:11:34;;;;;;;5.53;4.43;;;17.60;50.00;;;;;;5026931;28;20892;-79
2021/09/23 10:14:03;;;;;;;5.30;4.40;;;17.70;49.10;;;;;;5031796;28;20546;-78
2021/09/23 10:16:31;;;;;;;5.67;4.10;;;17.80;49.50;;;;;;5016904;28;20798;-76
2021/09/23 10:18:59;;;;;;;7.63;4.80;;;17.90;49.40;;;;;;5015660;28;20496;-77
2021/09/23 10:21:27;;;;;;;7.40;5.03;;;18.00;49.60;;;;;;5014850;28;20516;-77
2021/09/23 10:23:55;;;;;;;6.40;3.83;;;18.00;47.90;;;;;;5015337;28;20498;-78
2021/09/23 10:26:29;;;;;;;6.87;4.87;;;18.10;47.70;;;;;;5014560;28;20831;-78
2021/09/23 10:28:58;;;;;;;8.13;5.07;;;18.10;48.30;;;;;;5017515;28;20961;-76
2021/09/23 10:31:32;;;;;;;5.07;4.53;;;18.10;48.50;;;;;;5015112;28;20519;-75
2021/09/23 10:34:00;;;;;;;5.67;4.80;;;18.30;48.60;;;;;;5015768;28;20467;-78
2021/09/23 10:36:29;;;;;;;4.60;4.20;;;18.40;48.60;;;;;;5021827;28;20465;-77
2021/09/23 10:38:57;;;;;;;7.07;4.07;;;18.50;47.50;;;;;;5022268;28;20453;-77
2021/09/23 10:41:28;;;;;;;5.00;4.30;;;18.60;47.60;;;;;;5019324;28;20557;-76
2021/09/23 10:43:56;;;;;;;4.57;4.17;;;18.70;47.70;;;;;;5016232;28;20450;-78
2021/09/23 10:46:26;;;;;;;4.40;4.00;;;18.70;47.60;;;;;;5015115;28;20539;-76
2021/09/23 10:48:55;;;;;;;4.07;3.77;;;18.70;47.10;;;;;;5016310;28;20435;-76
2021/09/23 10:51:24;;;;;;;5.67;4.20;;;18.60;47.60;;;;;;5016843;28;20512;-78
2021/09/23 10:53:56;;;;;;;5.27;4.17;;;18.60;47.60;;;;;;5016466;28;20426;-78
2021/09/23 10:56:26;;;;;;;3.60;3.30;;;18.80;47.70;;;;;;5016148;28;20421;-78
2021/09/23 10:58:55;;;;;;;5.07;4.07;;;18.80;45.80;;;;;;5014958;28;20602;-77
2021/09/23 11:01:28;;;;;;;5.10;4.13;;;18.70;45.90;;;;;;5016042;28;20434;-77
2021/09/23 11:03:57;;;;;;;7.10;4.17;;;18.90;46.00;;;;;;5015360;28;20463;-76
2021/09/23 11:06:32;;;;;;;3.93;3.53;;;19.10;45.90;;;;;;5015950;28;20508;-77
2021/09/23 11:09:15;;;;;;;5.20;4.00;;;19.20;45.70;;;;;;5016812;28;20424;-77
2021/09/23 11:11:45;;;;;;;4.93;4.33;;;19.40;46.00;;;;;;5014958;28;20458;-77
2021/09/23 11:14:14;;;;;;;6.00;4.60;;;19.40;46.30;;;;;;5016363;28;20415;-77
2021/09/23 11:16:43;;;;;;;6.40;4.60;;;19.50;46.50;;;;;;5014186;28;20987;-76
2021/09/23 11:19:10;;;;;;;6.93;4.70;;;19.50;45.70;;;;;;5013082;28;20503;-77
2021/09/23 11:21:38;;;;;;;9.33;4.50;;;19.50;46.00;;;;;;5013083;28;20808;-77
2021/09/23 11:24:06;;;;;;;4.83;4.43;;;19.50;46.30;;;;;;5013665;28;20435;-76
2021/09/23 11:26:33;;;;;;;19.43;5.60;;;19.60;46.20;;;;;;5013390;28;20444;-77
2021/09/23 11:29:01;;;;;;;5.50;4.80;;;19.70;46.40;;;;;;5013913;28;20440;-78
2021/09/23 11:31:46;;;;;;;6.33;5.30;;;19.80;46.50;;;;;;5013525;28;20459;-76
2021/09/23 11:34:13;;;;;;;6.47;4.77;;;19.80;46.40;;;;;;5014382;28;20456;-79
2021/09/23 11:36:42;;;;;;;7.00;5.40;;;19.80;46.20;;;;;;5014116;28;20530;-77
2021/09/23 11:39:17;;;;;;;6.13;5.03;;;19.90;45.20;;;;;;5014614;28;20470;-76
2021/09/23 11:41:44;;;;;;;5.43;4.50;;;19.90;45.30;;;;;;5018076;28;20487;-82
2021/09/23 11:44:23;;;;;;;6.27;4.43;;;20.00;45.00;;;;;;5029756;28;20440;-79
2021/09/23 11:46:58;;;;;;;5.47;4.70;;;20.20;45.10;;;;;;5026984;28;20461;-81
2021/09/23 11:49:25;;;;;;;5.03;4.53;;;20.20;44.20;;;;;;5024660;28;20483;-80
2021/09/23 11:51:52;;;;;;;7.93;4.63;;;20.30;44.20;;;;;;5023849;28;20480;-80
2021/09/23 11:54:21;;;;;;;6.03;4.40;;;20.40;44.60;;;;;;5023999;28;20481;-79
2021/09/23 11:56:48;;;;;;;4.97;4.27;;;20.50;43.70;;;;;;5023956;28;20496;-80
2021/09/23 11:59:20;;;;;;;7.00;3.87;;;20.60;43.60;;;;;;5022898;28;20453;-81
2021/09/23 12:01:47;;;;;;;4.53;4.13;;;20.60;42.60;;;;;;5028171;28;20484;-79
2021/09/23 12:04:15;;;;;;;6.83;4.20;;;20.60;40.70;;;;;;5034612;28;20468;-80
2021/09/23 12:06:42;;;;;;;3.40;3.10;;;20.60;40.10;;;;;;5035735;28;20457;-77
2021/09/23 12:09:11;;;;;;;3.97;3.37;;;20.60;39.40;;;;;;5033194;28;20573;-78
2021/09/23 12:11:38;;;;;;;4.10;3.30;;;20.70;39.50;;;;;;5033333;28;20463;-79
2021/09/23 12:14:08;;;;;;;3.97;3.10;;;20.70;39.50;;;;;;5030398;28;20886;-80
2021/09/23 12:16:35;;;;;;;3.67;3.37;;;20.80;39.50;;;;;;5031562;28;20453;-77
2021/09/23 12:19:03;;;;;;;4.50;3.20;;;20.90;37.50;;;;;;5031079;28;20455;-78
2021/09/23 12:21:33;;;;;;;3.90;3.60;;;20.90;37.30;;;;;;5033136;28;20480;-79
2021/09/23 12:24:00;;;;;;;3.60;3.30;;;20.90;39.60;;;;;;5027671;28;20593;-79
2021/09/23 12:26:29;;;;;;;4.00;3.60;;;21.00;39.70;;;;;;5027912;28;20500;-80
2021/09/23 12:28:59;;;;;;;4.23;3.83;;;21.00;39.00;;;;;;5026832;28;20949;-80
2021/09/23 12:31:33;;;;;;;4.03;3.63;;;21.10;38.90;;;;;;5028195;28;20498;-80
2021/09/23 12:34:02;;;;;;;4.00;3.70;;;21.10;37.50;;;;;;5032573;28;20458;-80
2021/09/23 12:36:33;;;;;;;3.93;3.60;;;21.10;37.30;;;;;;5030195;28;21008;-81
2021/09/23 12:39:15;;;;;;;3.80;3.40;;;21.10;37.70;;;;;;5027279;28;20539;-80
2021/09/23 12:41:43;;;;;;;4.07;3.33;;;21.10;37.20;;;;;;5029036;28;20592;-80
2021/09/23 12:44:10;;;;;;;3.83;3.53;;;21.20;36.90;;;;;;5028066;28;20507;-79
2021/09/23 12:46:38;;;;;;;4.37;3.90;;;21.20;37.50;;;;;;5023333;28;20468;-77
2021/09/23 12:49:15;;;;;;;5.00;3.90;;;21.20;37.10;;;;;;5022105;28;20469;-80
2021/09/23 12:51:46;;;;;;;8.37;4.30;;;21.20;36.90;;;;;;5029511;28;20482;-80